sensor_id;sensor_type;location;lat;lon;timestamp;temperature;humidity
47791;DHT22;33547;49.044;1.156;2022-09-01T00:01:55;22.80;49.30
47791;DHT22;33547;49.044;1.156;2022-09-01T00:04:24;22.80;49.40
47791;DHT22;33547;49.044;1.156;2022-09-01T00:06:52;22.80;49.40
47791;DHT22;33547;49.044;1.156;2022-09-01T00:09:22;22.80;49.40
47791;DHT22;33547;49.044;1.156;2022-09-01T00:11:51;22.80;49.40
47791;DHT22;33547;49.044;1.156;2022-09-01T00:14:24;22.80;49.50
47791;DHT22;33547;49.044;1.156;2022-09-01T00:16:52;22.70;49.50
47791;DHT22;33547;49.044;1.156;2022-09-01T00:19:19;22.70;49.50
47791;DHT22;33547;49.044;1.156;2022-09-01T00:21:46;22.70;49.50
47791;DHT22;33547;49.044;1.156;2022-09-01T00:24:14;22.70;49.60
47791;DHT22;33547;49.044;1.156;2022-09-01T00:26:41;22.60;49.60
47791;DHT22;33547;49.044;1.156;2022-09-01T00:29:07;22.60;49.70
47791;DHT22;33547;49.044;1.156;2022-09-01T00:31:33;22.60;49.60
47791;DHT22;33547;49.044;1.156;2022-09-01T00:34:00;22.60;49.70
47791;DHT22;33547;49.044;1.156;2022-09-01T00:36:26;22.60;49.70
47791;DHT22;33547;49.044;1.156;2022-09-01T00:38:52;22.50;49.80
47791;DHT22;33547;49.044;1.156;2022-09-01T00:41:20;22.50;49.80
47791;DHT22;33547;49.044;1.156;2022-09-01T00:43:54;22.50;49.80
47791;DHT22;33547;49.044;1.156;2022-09-01T00:46:28;22.40;49.70
47791;DHT22;33547;49.044;1.156;2022-09-01T00:51:57;22.40;49.80
47791;DHT22;33547;49.044;1.156;2022-09-01T00:54:31;22.40;49.90
47791;DHT22;33547;49.044;1.156;2022-09-01T00:57:01;22.40;49.90
47791;DHT22;33547;49.044;1.156;2022-09-01T00:59:28;22.30;50.00
47791;DHT22;33547;49.044;1.156;2022-09-01T01:01:55;22.30;50.00
47791;DHT22;33547;49.044;1.156;2022-09-01T01:04:23;22.30;50.00
47791;DHT22;33547;49.044;1.156;2022-09-01T01:06:53;22.30;50.10
47791;DHT22;33547;49.044;1.156;2022-09-01T01:09:29;22.30;50.10
47791;DHT22;33547;49.044;1.156;2022-09-01T01:11:59;22.20;50.10
47791;DHT22;33547;49.044;1.156;2022-09-01T01:14:27;22.20;50.10
47791;DHT22;33547;49.044;1.156;2022-09-01T01:16:57;22.20;50.10
47791;DHT22;33547;49.044;1.156;2022-09-01T01:19:42;22.10;50.20
47791;DHT22;33547;49.044;1.156;2022-09-01T01:25:47;22.10;50.20
47791;DHT22;33547;49.044;1.156;2022-09-01T01:28:25;22.00;50.30
47791;DHT22;33547;49.044;1.156;2022-09-01T01:33:29;22.00;50.30
47791;DHT22;33547;49.044;1.156;2022-09-01T01:36:01;22.00;50.40
47791;DHT22;33547;49.044;1.156;2022-09-01T01:38:28;21.90;50.40
47791;DHT22;33547;49.044;1.156;2022-09-01T01:40:55;21.90;50.40
47791;DHT22;33547;49.044;1.156;2022-09-01T01:43:22;21.90;50.40
47791;DHT22;33547;49.044;1.156;2022-09-01T01:45:50;21.90;50.50
47791;DHT22;33547;49.044;1.156;2022-09-01T01:48:21;21.90;50.50
47791;DHT22;33547;49.044;1.156;2022-09-01T01:50:50;21.90;50.50
47791;DHT22;33547;49.044;1.156;2022-09-01T01:53:18;21.80;50.50
47791;DHT22;33547;49.044;1.156;2022-09-01T01:55:45;21.80;50.60
47791;DHT22;33547;49.044;1.156;2022-09-01T01:58:16;21.80;50.60
47791;DHT22;33547;49.044;1.156;2022-09-01T02:00:45;21.70;50.60
47791;DHT22;33547;49.044;1.156;2022-09-01T02:03:15;21.70;50.60
47791;DHT22;33547;49.044;1.156;2022-09-01T02:05:48;21.70;50.70
47791;DHT22;33547;49.044;1.156;2022-09-01T02:08:16;21.70;50.70
47791;DHT22;33547;49.044;1.156;2022-09-01T02:10:49;21.70;50.70
47791;DHT22;33547;49.044;1.156;2022-09-01T02:13:18;21.60;50.70
47791;DHT22;33547;49.044;1.156;2022-09-01T02:15:50;21.60;50.70
47791;DHT22;33547;49.044;1.156;2022-09-01T02:18:36;21.60;50.90
47791;DHT22;33547;49.044;1.156;2022-09-01T02:21:09;21.60;50.90
47791;DHT22;33547;49.044;1.156;2022-09-01T02:23:38;21.60;50.80
47791;DHT22;33547;49.044;1.156;2022-09-01T02:26:06;21.50;50.80
47791;DHT22;33547;49.044;1.156;2022-09-01T02:28:37;21.50;50.80
47791;DHT22;33547;49.044;1.156;2022-09-01T02:31:08;21.50;50.90
47791;DHT22;33547;49.044;1.156;2022-09-01T02:33:37;21.50;51.00
47791;DHT22;33547;49.044;1.156;2022-09-01T02:36:07;21.50;51.00
47791;DHT22;33547;49.044;1.156;2022-09-01T02:38:38;21.40;50.90
47791;DHT22;33547;49.044;1.156;2022-09-01T02:41:06;21.40;51.00
47791;DHT22;33547;49.044;1.156;2022-09-01T02:43:32;21.30;51.00
47791;DHT22;33547;49.044;1.156;2022-09-01T02:46:00;21.40;51.10
47791;DHT22;33547;49.044;1.156;2022-09-01T02:48:36;21.30;51.10
47791;DHT22;33547;49.044;1.156;2022-09-01T02:51:06;21.30;51.10
47791;DHT22;33547;49.044;1.156;2022-09-01T02:53:35;21.30;51.20
47791;DHT22;33547;49.044;1.156;2022-09-01T02:56:05;21.30;51.10
47791;DHT22;33547;49.044;1.156;2022-09-01T02:58:35;21.20;51.20
47791;DHT22;33547;49.044;1.156;2022-09-01T03:01:30;21.20;51.10
47791;DHT22;33547;49.044;1.156;2022-09-01T03:04:03;21.20;51.20
47791;DHT22;33547;49.044;1.156;2022-09-01T03:06:30;21.20;51.30
47791;DHT22;33547;49.044;1.156;2022-09-01T03:08:59;21.20;51.30
47791;DHT22;33547;49.044;1.156;2022-09-01T03:11:26;21.10;51.30
47791;DHT22;33547;49.044;1.156;2022-09-01T03:13:53;21.10;51.30
47791;DHT22;33547;49.044;1.156;2022-09-01T03:16:20;21.10;51.30
47791;DHT22;33547;49.044;1.156;2022-09-01T03:18:49;21.10;51.40
47791;DHT22;33547;49.044;1.156;2022-09-01T03:21:16;21.00;51.40
47791;DHT22;33547;49.044;1.156;2022-09-01T03:23:43;21.00;51.40
47791;DHT22;33547;49.044;1.156;2022-09-01T03:26:10;21.00;51.40
47791;DHT22;33547;49.044;1.156;2022-09-01T03:28:37;21.00;51.50
47791;DHT22;33547;49.044;1.156;2022-09-01T03:31:04;21.00;51.50
47791;DHT22;33547;49.044;1.156;2022-09-01T03:33:30;20.90;51.50
47791;DHT22;33547;49.044;1.156;2022-09-01T03:35:57;20.90;51.50
47791;DHT22;33547;49.044;1.156;2022-09-01T03:38:24;20.90;51.50
47791;DHT22;33547;49.044;1.156;2022-09-01T03:40:53;20.90;51.50
47791;DHT22;33547;49.044;1.156;2022-09-01T03:43:24;20.90;51.60
47791;DHT22;33547;49.044;1.156;2022-09-01T03:45:53;20.90;51.60
47791;DHT22;33547;49.044;1.156;2022-09-01T03:48:21;20.80;51.60
47791;DHT22;33547;49.044;1.156;2022-09-01T03:50:50;20.80;51.60
47791;DHT22;33547;49.044;1.156;2022-09-01T03:53:19;20.80;51.60
47791;DHT22;33547;49.044;1.156;2022-09-01T03:55:48;20.80;51.70
47791;DHT22;33547;49.044;1.156;2022-09-01T03:58:17;20.70;51.70
47791;DHT22;33547;49.044;1.156;2022-09-01T04:00:49;20.70;51.70
47791;DHT22;33547;49.044;1.156;2022-09-01T04:03:21;20.70;51.70
47791;DHT22;33547;49.044;1.156;2022-09-01T04:05:50;20.70;51.80
47791;DHT22;33547;49.044;1.156;2022-09-01T04:08:18;20.70;51.80
47791;DHT22;33547;49.044;1.156;2022-09-01T04:10:51;20.70;51.80
47791;DHT22;33547;49.044;1.156;2022-09-01T04:13:30;20.60;51.80
47791;DHT22;33547;49.044;1.156;2022-09-01T04:15:58;20.60;51.90
47791;DHT22;33547;49.044;1.156;2022-09-01T04:18:25;20.60;51.90
47791;DHT22;33547;49.044;1.156;2022-09-01T04:20:56;20.60;51.90
47791;DHT22;33547;49.044;1.156;2022-09-01T04:23:24;20.50;51.90
47791;DHT22;33547;49.044;1.156;2022-09-01T04:28:38;20.50;51.90
47791;DHT22;33547;49.044;1.156;2022-09-01T04:31:08;20.50;51.90
47791;DHT22;33547;49.044;1.156;2022-09-01T04:33:39;20.40;51.80
47791;DHT22;33547;49.044;1.156;2022-09-01T04:36:28;20.40;51.90
47791;DHT22;33547;49.044;1.156;2022-09-01T04:38:58;20.40;51.90
47791;DHT22;33547;49.044;1.156;2022-09-01T04:41:30;20.40;51.90
47791;DHT22;33547;49.044;1.156;2022-09-01T04:43:58;20.40;52.00
47791;DHT22;33547;49.044;1.156;2022-09-01T04:46:28;20.40;52.00
47791;DHT22;33547;49.044;1.156;2022-09-01T04:48:56;20.40;52.00
47791;DHT22;33547;49.044;1.156;2022-09-01T04:51:23;20.30;52.00
47791;DHT22;33547;49.044;1.156;2022-09-01T04:53:53;20.30;52.00
47791;DHT22;33547;49.044;1.156;2022-09-01T04:56:20;20.30;52.10
47791;DHT22;33547;49.044;1.156;2022-09-01T04:58:48;20.30;52.00
47791;DHT22;33547;49.044;1.156;2022-09-01T05:01:23;20.30;52.00
47791;DHT22;33547;49.044;1.156;2022-09-01T05:03:51;20.30;52.10
47791;DHT22;33547;49.044;1.156;2022-09-01T05:06:27;20.30;54.70
47791;DHT22;33547;49.044;1.156;2022-09-01T05:08:54;20.40;55.10
47791;DHT22;33547;49.044;1.156;2022-09-01T05:11:24;20.40;55.00
47791;DHT22;33547;49.044;1.156;2022-09-01T05:13:50;20.40;55.30
47791;DHT22;33547;49.044;1.156;2022-09-01T05:16:22;20.50;55.90
47791;DHT22;33547;49.044;1.156;2022-09-01T05:18:52;20.40;56.20
47791;DHT22;33547;49.044;1.156;2022-09-01T05:21:22;20.50;56.60
47791;DHT22;33547;49.044;1.156;2022-09-01T05:23:52;20.50;57.00
47791;DHT22;33547;49.044;1.156;2022-09-01T05:26:26;20.60;57.30
47791;DHT22;33547;49.044;1.156;2022-09-01T05:28:55;20.60;57.80
47791;DHT22;33547;49.044;1.156;2022-09-01T05:31:24;20.60;58.40
47791;DHT22;33547;49.044;1.156;2022-09-01T05:33:52;20.60;58.40
47791;DHT22;33547;49.044;1.156;2022-09-01T05:36:21;20.60;58.70
47791;DHT22;33547;49.044;1.156;2022-09-01T05:38:48;20.60;59.80
47791;DHT22;33547;49.044;1.156;2022-09-01T05:41:18;20.60;59.30
47791;DHT22;33547;49.044;1.156;2022-09-01T05:43:47;20.60;59.50
47791;DHT22;33547;49.044;1.156;2022-09-01T05:46:21;20.50;59.10
47791;DHT22;33547;49.044;1.156;2022-09-01T05:48:50;20.50;60.30
47791;DHT22;33547;49.044;1.156;2022-09-01T05:51:20;20.60;60.40
47791;DHT22;33547;49.044;1.156;2022-09-01T05:53:51;20.60;60.30
47791;DHT22;33547;49.044;1.156;2022-09-01T05:56:21;20.70;60.00
47791;DHT22;33547;49.044;1.156;2022-09-01T05:58:48;20.70;59.70
47791;DHT22;33547;49.044;1.156;2022-09-01T06:01:19;20.70;59.60
47791;DHT22;33547;49.044;1.156;2022-09-01T06:03:52;20.80;59.50
47791;DHT22;33547;49.044;1.156;2022-09-01T06:06:24;20.80;59.30
47791;DHT22;33547;49.044;1.156;2022-09-01T06:08:52;20.80;59.10
47791;DHT22;33547;49.044;1.156;2022-09-01T06:11:25;20.80;58.20
47791;DHT22;33547;49.044;1.156;2022-09-01T06:13:52;20.80;57.70
47791;DHT22;33547;49.044;1.156;2022-09-01T06:16:22;20.90;57.60
47791;DHT22;33547;49.044;1.156;2022-09-01T06:18:49;20.90;57.30
47791;DHT22;33547;49.044;1.156;2022-09-01T06:21:20;20.90;57.70
47791;DHT22;33547;49.044;1.156;2022-09-01T06:23:50;20.90;57.00
47791;DHT22;33547;49.044;1.156;2022-09-01T06:26:26;21.00;56.80
47791;DHT22;33547;49.044;1.156;2022-09-01T06:28:59;21.10;56.60
47791;DHT22;33547;49.044;1.156;2022-09-01T06:31:30;21.10;56.40
47791;DHT22;33547;49.044;1.156;2022-09-01T06:34:00;21.30;56.10
47791;DHT22;33547;49.044;1.156;2022-09-01T06:36:29;21.20;55.40
47791;DHT22;33547;49.044;1.156;2022-09-01T06:38:58;21.30;55.00
47791;DHT22;33547;49.044;1.156;2022-09-01T06:41:28;21.50;55.20
47791;DHT22;33547;49.044;1.156;2022-09-01T06:43:55;21.60;54.70
47791;DHT22;33547;49.044;1.156;2022-09-01T06:46:22;21.60;54.40
47791;DHT22;33547;49.044;1.156;2022-09-01T06:48:54;21.60;54.60
47791;DHT22;33547;49.044;1.156;2022-09-01T06:51:24;21.60;54.70
47791;DHT22;33547;49.044;1.156;2022-09-01T06:53:55;21.60;54.50
47791;DHT22;33547;49.044;1.156;2022-09-01T06:56:27;21.90;54.20
47791;DHT22;33547;49.044;1.156;2022-09-01T06:58:59;22.20;53.60
47791;DHT22;33547;49.044;1.156;2022-09-01T07:01:30;22.60;53.10
47791;DHT22;33547;49.044;1.156;2022-09-01T07:03:56;22.80;52.50
47791;DHT22;33547;49.044;1.156;2022-09-01T07:06:24;23.10;51.60
47791;DHT22;33547;49.044;1.156;2022-09-01T07:09:01;23.40;50.80
47791;DHT22;33547;49.044;1.156;2022-09-01T07:11:30;23.70;50.20
47791;DHT22;33547;49.044;1.156;2022-09-01T07:14:01;23.90;49.70
47791;DHT22;33547;49.044;1.156;2022-09-01T07:16:31;24.20;49.60
47791;DHT22;33547;49.044;1.156;2022-09-01T07:19:01;24.50;48.60
47791;DHT22;33547;49.044;1.156;2022-09-01T07:21:29;24.90;48.00
47791;DHT22;33547;49.044;1.156;2022-09-01T07:23:59;25.10;47.40
47791;DHT22;33547;49.044;1.156;2022-09-01T07:26:28;25.40;46.90
47791;DHT22;33547;49.044;1.156;2022-09-01T07:28:54;25.80;46.50
47791;DHT22;33547;49.044;1.156;2022-09-01T07:31:23;26.20;46.20
47791;DHT22;33547;49.044;1.156;2022-09-01T07:33:54;26.50;45.70
47791;DHT22;33547;49.044;1.156;2022-09-01T07:36:23;26.80;45.50
47791;DHT22;33547;49.044;1.156;2022-09-01T07:38:49;27.10;45.40
47791;DHT22;33547;49.044;1.156;2022-09-01T07:41:19;27.20;45.00
47791;DHT22;33547;49.044;1.156;2022-09-01T07:43:47;27.60;44.70
47791;DHT22;33547;49.044;1.156;2022-09-01T07:46:15;27.80;44.20
47791;DHT22;33547;49.044;1.156;2022-09-01T07:48:41;28.00;44.10
47791;DHT22;33547;49.044;1.156;2022-09-01T07:51:07;28.20;43.80
47791;DHT22;33547;49.044;1.156;2022-09-01T07:53:35;28.40;43.80
47791;DHT22;33547;49.044;1.156;2022-09-01T07:56:10;28.40;43.80
47791;DHT22;33547;49.044;1.156;2022-09-01T07:58:38;28.30;43.60
47791;DHT22;33547;49.044;1.156;2022-09-01T08:01:13;28.10;43.80
47791;DHT22;33547;49.044;1.156;2022-09-01T08:03:44;28.10;44.30
47791;DHT22;33547;49.044;1.156;2022-09-01T08:06:13;27.90;44.40
47791;DHT22;33547;49.044;1.156;2022-09-01T08:08:44;28.00;44.70
47791;DHT22;33547;49.044;1.156;2022-09-01T08:11:20;28.00;44.70
47791;DHT22;33547;49.044;1.156;2022-09-01T08:13:50;28.20;44.50
47791;DHT22;33547;49.044;1.156;2022-09-01T08:16:17;28.30;44.60
47791;DHT22;33547;49.044;1.156;2022-09-01T08:18:44;28.60;44.10
47791;DHT22;33547;49.044;1.156;2022-09-01T08:21:13;29.00;43.70
47791;DHT22;33547;49.044;1.156;2022-09-01T08:23:40;29.50;43.10
47791;DHT22;33547;49.044;1.156;2022-09-01T08:26:12;29.70;42.10
47791;DHT22;33547;49.044;1.156;2022-09-01T08:28:39;29.70;41.40
47791;DHT22;33547;49.044;1.156;2022-09-01T08:31:08;29.40;42.30
47791;DHT22;33547;49.044;1.156;2022-09-01T08:33:39;29.40;42.40
47791;DHT22;33547;49.044;1.156;2022-09-01T08:36:07;29.70;42.40
47791;DHT22;33547;49.044;1.156;2022-09-01T08:38:35;30.00;41.00
47791;DHT22;33547;49.044;1.156;2022-09-01T08:41:02;30.40;41.80
47791;DHT22;33547;49.044;1.156;2022-09-01T08:43:58;30.70;41.00
47791;DHT22;33547;49.044;1.156;2022-09-01T08:46:36;31.10;40.60
47791;DHT22;33547;49.044;1.156;2022-09-01T08:49:09;31.60;40.00
47791;DHT22;33547;49.044;1.156;2022-09-01T08:54:48;32.20;38.20
47791;DHT22;33547;49.044;1.156;2022-09-01T08:57:35;32.30;38.30
47791;DHT22;33547;49.044;1.156;2022-09-01T09:00:08;32.80;38.10
47791;DHT22;33547;49.044;1.156;2022-09-01T09:02:50;33.20;37.70
47791;DHT22;33547;49.044;1.156;2022-09-01T09:16:47;34.70;35.30
47791;DHT22;33547;49.044;1.156;2022-09-01T09:21:57;35.30;34.00
47791;DHT22;33547;49.044;1.156;2022-09-01T09:25:01;35.70;34.70
47791;DHT22;33547;49.044;1.156;2022-09-01T09:27:40;35.90;33.70
47791;DHT22;33547;49.044;1.156;2022-09-01T09:30:09;36.20;33.90
47791;DHT22;33547;49.044;1.156;2022-09-01T09:38:16;36.70;32.70
47791;DHT22;33547;49.044;1.156;2022-09-01T09:41:05;36.80;33.00
47791;DHT22;33547;49.044;1.156;2022-09-01T09:43:41;37.20;32.90
47791;DHT22;33547;49.044;1.156;2022-09-01T09:46:23;37.50;32.80
47791;DHT22;33547;49.044;1.156;2022-09-01T09:49:18;37.50;32.10
47791;DHT22;33547;49.044;1.156;2022-09-01T09:51:48;37.80;31.80
47791;DHT22;33547;49.044;1.156;2022-09-01T10:00:38;38.20;31.80
47791;DHT22;33547;49.044;1.156;2022-09-01T10:02:42;38.70;31.90
47791;DHT22;33547;49.044;1.156;2022-09-01T10:05:46;38.60;31.40
47791;DHT22;33547;49.044;1.156;2022-09-01T10:11:03;37.40;32.00
47791;DHT22;33547;49.044;1.156;2022-09-01T10:13:31;37.00;32.50
47791;DHT22;33547;49.044;1.156;2022-09-01T10:16:18;36.70;32.80
47791;DHT22;33547;49.044;1.156;2022-09-01T10:18:54;36.50;33.30
47791;DHT22;33547;49.044;1.156;2022-09-01T10:21:33;36.80;33.30
47791;DHT22;33547;49.044;1.156;2022-09-01T10:24:48;37.40;33.30
47791;DHT22;33547;49.044;1.156;2022-09-01T10:27:02;38.30;32.50
47791;DHT22;33547;49.044;1.156;2022-09-01T10:29:41;38.70;32.00
47791;DHT22;33547;49.044;1.156;2022-09-01T10:32:14;39.20;31.50
47791;DHT22;33547;49.044;1.156;2022-09-01T10:34:43;39.10;31.10
47791;DHT22;33547;49.044;1.156;2022-09-01T10:37:11;39.20;30.80
47791;DHT22;33547;49.044;1.156;2022-09-01T10:40:12;39.10;30.40
47791;DHT22;33547;49.044;1.156;2022-09-01T10:42:47;38.80;30.80
47791;DHT22;33547;49.044;1.156;2022-09-01T10:45:36;38.60;30.90
47791;DHT22;33547;49.044;1.156;2022-09-01T10:48:34;38.50;31.10
47791;DHT22;33547;49.044;1.156;2022-09-01T10:53:51;38.30;31.60
47791;DHT22;33547;49.044;1.156;2022-09-01T11:04:19;37.00;32.50
47791;DHT22;33547;49.044;1.156;2022-09-01T11:17:55;36.90;32.90
47791;DHT22;33547;49.044;1.156;2022-09-01T11:20:31;37.30;32.60
47791;DHT22;33547;49.044;1.156;2022-09-01T11:23:26;37.40;32.60
47791;DHT22;33547;49.044;1.156;2022-09-01T11:26:00;37.20;32.80
47791;DHT22;33547;49.044;1.156;2022-09-01T11:31:02;37.00;32.70
47791;DHT22;33547;49.044;1.156;2022-09-01T11:42:06;36.00;34.00
47791;DHT22;33547;49.044;1.156;2022-09-01T11:44:48;36.10;34.20
47791;DHT22;33547;49.044;1.156;2022-09-01T11:47:43;36.30;34.00
47791;DHT22;33547;49.044;1.156;2022-09-01T11:58:01;35.80;34.10
47791;DHT22;33547;49.044;1.156;2022-09-01T12:00:34;35.60;34.50
47791;DHT22;33547;49.044;1.156;2022-09-01T12:03:23;35.30;34.80
47791;DHT22;33547;49.044;1.156;2022-09-01T12:05:56;35.10;35.00
47791;DHT22;33547;49.044;1.156;2022-09-01T12:08:28;35.00;35.30
47791;DHT22;33547;49.044;1.156;2022-09-01T12:11:31;35.20;35.20
47791;DHT22;33547;49.044;1.156;2022-09-01T12:14:01;35.30;35.00
47791;DHT22;33547;49.044;1.156;2022-09-01T12:16:30;35.10;35.20
47791;DHT22;33547;49.044;1.156;2022-09-01T12:18:59;35.00;35.30
47791;DHT22;33547;49.044;1.156;2022-09-01T12:24:20;34.60;36.20
47791;DHT22;33547;49.044;1.156;2022-09-01T12:26:51;34.70;35.80
47791;DHT22;33547;49.044;1.156;2022-09-01T12:29:19;34.50;35.80
47791;DHT22;33547;49.044;1.156;2022-09-01T12:31:48;34.50;36.00
47791;DHT22;33547;49.044;1.156;2022-09-01T12:37:08;34.40;36.10
47791;DHT22;33547;49.044;1.156;2022-09-01T12:39:46;34.40;36.00
47791;DHT22;33547;49.044;1.156;2022-09-01T12:45:05;34.60;35.90
47791;DHT22;33547;49.044;1.156;2022-09-01T12:49:58;34.40;36.00
47791;DHT22;33547;49.044;1.156;2022-09-01T12:52:26;34.30;36.10
47791;DHT22;33547;49.044;1.156;2022-09-01T12:57:30;34.30;36.30
47791;DHT22;33547;49.044;1.156;2022-09-01T13:02:50;34.10;36.40
47791;DHT22;33547;49.044;1.156;2022-09-01T13:05:29;34.10;36.40
47791;DHT22;33547;49.044;1.156;2022-09-01T13:08:17;34.00;36.50
47791;DHT22;33547;49.044;1.156;2022-09-01T13:10:45;33.90;36.60
47791;DHT22;33547;49.044;1.156;2022-09-01T13:13:15;33.80;36.70
47791;DHT22;33547;49.044;1.156;2022-09-01T13:15:49;33.70;36.80
47791;DHT22;33547;49.044;1.156;2022-09-01T13:18:17;33.70;36.90
47791;DHT22;33547;49.044;1.156;2022-09-01T13:20:46;33.70;37.10
47791;DHT22;33547;49.044;1.156;2022-09-01T13:23:13;33.60;37.10
47791;DHT22;33547;49.044;1.156;2022-09-01T13:25:39;33.50;37.20
47791;DHT22;33547;49.044;1.156;2022-09-01T13:28:08;33.40;37.30
47791;DHT22;33547;49.044;1.156;2022-09-01T13:30:35;33.40;37.30
47791;DHT22;33547;49.044;1.156;2022-09-01T13:33:01;33.40;37.40
47791;DHT22;33547;49.044;1.156;2022-09-01T13:35:27;33.30;37.40
47791;DHT22;33547;49.044;1.156;2022-09-01T13:37:52;33.30;37.50
47791;DHT22;33547;49.044;1.156;2022-09-01T13:40:20;33.20;37.60
47791;DHT22;33547;49.044;1.156;2022-09-01T13:42:49;33.20;37.60
47791;DHT22;33547;49.044;1.156;2022-09-01T13:45:18;33.10;37.70
47791;DHT22;33547;49.044;1.156;2022-09-01T13:47:47;33.00;37.80
47791;DHT22;33547;49.044;1.156;2022-09-01T13:50:15;32.90;38.00
47791;DHT22;33547;49.044;1.156;2022-09-01T13:52:46;32.90;38.10
47791;DHT22;33547;49.044;1.156;2022-09-01T13:55:20;32.90;38.20
47791;DHT22;33547;49.044;1.156;2022-09-01T13:57:48;32.80;38.20
47791;DHT22;33547;49.044;1.156;2022-09-01T14:00:17;32.70;38.30
47791;DHT22;33547;49.044;1.156;2022-09-01T14:02:51;32.60;38.40
47791;DHT22;33547;49.044;1.156;2022-09-01T14:05:30;32.60;38.50
47791;DHT22;33547;49.044;1.156;2022-09-01T14:07:59;32.50;38.60
47791;DHT22;33547;49.044;1.156;2022-09-01T14:10:27;32.40;38.70
47791;DHT22;33547;49.044;1.156;2022-09-01T14:12:54;32.40;38.70
47791;DHT22;33547;49.044;1.156;2022-09-01T14:15:20;32.40;38.80
47791;DHT22;33547;49.044;1.156;2022-09-01T14:17:48;32.40;38.80
47791;DHT22;33547;49.044;1.156;2022-09-01T14:20:18;32.40;38.80
47791;DHT22;33547;49.044;1.156;2022-09-01T14:22:47;32.40;38.80
47791;DHT22;33547;49.044;1.156;2022-09-01T14:25:15;32.40;38.80
47791;DHT22;33547;49.044;1.156;2022-09-01T14:27:43;32.40;38.80
47791;DHT22;33547;49.044;1.156;2022-09-01T14:30:12;32.40;38.80
47791;DHT22;33547;49.044;1.156;2022-09-01T14:32:41;32.40;38.80
47791;DHT22;33547;49.044;1.156;2022-09-01T14:35:07;32.40;38.80
47791;DHT22;33547;49.044;1.156;2022-09-01T14:37:36;32.40;38.80
47791;DHT22;33547;49.044;1.156;2022-09-01T14:40:03;32.50;38.70
47791;DHT22;33547;49.044;1.156;2022-09-01T14:42:32;32.60;38.60
47791;DHT22;33547;49.044;1.156;2022-09-01T14:44:58;32.70;38.40
47791;DHT22;33547;49.044;1.156;2022-09-01T14:47:26;32.70;38.40
47791;DHT22;33547;49.044;1.156;2022-09-01T14:49:52;32.70;38.40
47791;DHT22;33547;49.044;1.156;2022-09-01T14:52:19;32.60;38.50
47791;DHT22;33547;49.044;1.156;2022-09-01T14:54:46;32.50;38.50
47791;DHT22;33547;49.044;1.156;2022-09-01T14:57:13;32.50;38.70
47791;DHT22;33547;49.044;1.156;2022-09-01T14:59:39;32.50;38.70
47791;DHT22;33547;49.044;1.156;2022-09-01T15:02:07;32.40;38.80
47791;DHT22;33547;49.044;1.156;2022-09-01T15:04:34;32.30;38.90
47791;DHT22;33547;49.044;1.156;2022-09-01T15:07:01;32.20;39.00
47791;DHT22;33547;49.044;1.156;2022-09-01T15:09:31;32.10;39.10
47791;DHT22;33547;49.044;1.156;2022-09-01T15:11:57;32.10;39.20
47791;DHT22;33547;49.044;1.156;2022-09-01T15:14:23;32.00;39.30
47791;DHT22;33547;49.044;1.156;2022-09-01T15:16:49;31.90;39.30
47791;DHT22;33547;49.044;1.156;2022-09-01T15:19:15;31.90;39.50
47791;DHT22;33547;49.044;1.156;2022-09-01T15:21:43;31.80;39.60
47791;DHT22;33547;49.044;1.156;2022-09-01T15:24:10;31.70;39.70
47791;DHT22;33547;49.044;1.156;2022-09-01T15:26:36;31.60;39.90
47791;DHT22;33547;49.044;1.156;2022-09-01T15:29:03;31.50;40.00
47791;DHT22;33547;49.044;1.156;2022-09-01T15:31:29;31.40;40.10
47791;DHT22;33547;49.044;1.156;2022-09-01T15:33:59;31.30;40.20
47791;DHT22;33547;49.044;1.156;2022-09-01T15:36:28;31.30;40.40
47791;DHT22;33547;49.044;1.156;2022-09-01T15:38:55;31.20;40.50
47791;DHT22;33547;49.044;1.156;2022-09-01T15:41:27;31.10;40.50
47791;DHT22;33547;49.044;1.156;2022-09-01T15:43:55;31.10;40.70
47791;DHT22;33547;49.044;1.156;2022-09-01T15:46:22;31.00;40.80
47791;DHT22;33547;49.044;1.156;2022-09-01T15:49:00;30.90;40.90
47791;DHT22;33547;49.044;1.156;2022-09-01T15:51:33;30.80;41.00
47791;DHT22;33547;49.044;1.156;2022-09-01T15:54:08;30.70;41.10
47791;DHT22;33547;49.044;1.156;2022-09-01T15:56:35;30.70;41.30
47791;DHT22;33547;49.044;1.156;2022-09-01T15:59:02;30.60;41.40
47791;DHT22;33547;49.044;1.156;2022-09-01T16:01:33;30.60;41.50
47791;DHT22;33547;49.044;1.156;2022-09-01T16:04:04;30.50;41.50
47791;DHT22;33547;49.044;1.156;2022-09-01T16:06:32;30.40;41.60
47791;DHT22;33547;49.044;1.156;2022-09-01T16:08:59;30.30;41.80
47791;DHT22;33547;49.044;1.156;2022-09-01T16:11:25;30.30;41.60
47791;DHT22;33547;49.044;1.156;2022-09-01T16:13:52;30.30;41.50
47791;DHT22;33547;49.044;1.156;2022-09-01T16:24:54;30.00;41.60
47791;DHT22;33547;49.044;1.156;2022-09-01T16:27:32;29.90;41.70
47791;DHT22;33547;49.044;1.156;2022-09-01T16:30:10;29.90;41.70
47791;DHT22;33547;49.044;1.156;2022-09-01T16:32:45;29.70;41.80
47791;DHT22;33547;49.044;1.156;2022-09-01T16:35:12;29.60;41.80
47791;DHT22;33547;49.044;1.156;2022-09-01T16:43:34;29.40;42.00
47791;DHT22;33547;49.044;1.156;2022-09-01T16:46:26;29.40;42.50
47791;DHT22;33547;49.044;1.156;2022-09-01T16:49:27;29.30;42.80
47791;DHT22;33547;49.044;1.156;2022-09-01T16:52:22;29.20;42.80
47791;DHT22;33547;49.044;1.156;2022-09-01T16:55:13;29.20;43.10
47791;DHT22;33547;49.044;1.156;2022-09-01T17:00:20;29.10;43.60
47791;DHT22;33547;49.044;1.156;2022-09-01T17:03:15;29.10;44.00
47791;DHT22;33547;49.044;1.156;2022-09-01T17:08:25;28.80;45.30
47791;DHT22;33547;49.044;1.156;2022-09-01T17:11:00;28.80;45.20
47791;DHT22;33547;49.044;1.156;2022-09-01T17:13:37;28.70;45.30
47791;DHT22;33547;49.044;1.156;2022-09-01T17:16:24;28.50;45.90
47791;DHT22;33547;49.044;1.156;2022-09-01T17:19:00;28.40;46.10
47791;DHT22;33547;49.044;1.156;2022-09-01T17:21:52;28.30;46.80
47791;DHT22;33547;49.044;1.156;2022-09-01T17:26:51;28.00;47.80
47791;DHT22;33547;49.044;1.156;2022-09-01T17:29:20;27.80;48.30
47791;DHT22;33547;49.044;1.156;2022-09-01T17:38:09;27.60;48.20
47791;DHT22;33547;49.044;1.156;2022-09-01T17:40:53;27.50;48.20
47791;DHT22;33547;49.044;1.156;2022-09-01T17:49:29;27.30;48.80
47791;DHT22;33547;49.044;1.156;2022-09-01T18:01:00;27.00;49.70
47791;DHT22;33547;49.044;1.156;2022-09-01T18:06:05;26.90;50.80
47791;DHT22;33547;49.044;1.156;2022-09-01T18:08:44;26.80;50.70
47791;DHT22;33547;49.044;1.156;2022-09-01T18:11:15;26.70;50.90
47791;DHT22;33547;49.044;1.156;2022-09-01T18:16:56;26.70;51.70
47791;DHT22;33547;49.044;1.156;2022-09-01T18:19:31;26.60;51.90
47791;DHT22;33547;49.044;1.156;2022-09-01T18:22:05;26.50;52.30
47791;DHT22;33547;49.044;1.156;2022-09-01T18:24:48;26.50;52.60
47791;DHT22;33547;49.044;1.156;2022-09-01T18:27:20;26.40;52.70